Stoneboro, South Carolina
Current Conditions -  °F | °C
As of 1:55 PM on Wednesday 26 Nov 2014 (Local Time) from KLKR Reporting Station
Light Rain Light Rain  
Wind Chill: 50°   Ceiling: 1900
Heat Index: 50°   Visibility: 10mi
Dew Point: 46°   Wind: 3mph
Humidity: 87%   Direction: 320°NW
Pressure: 30.01"   Gusts: NA
Location:  34.5669°N, 80.7524°W
Report Text: KLKR 261855Z AUTO 32003KT 10SM -RA BKN019 OVC027 10/08 A3001 RMK AO2 P0001
Loading
Personal Weather Stations






























Interactive Weather Map New forecast layout! Learn more

10-Day Weather Forecast

Advertisements
Track Severe Weather on mobile